Aérodrome :
LOGIN :

S'inscrire | Disclaimer

   EN    FR    IT 

 










Légende :    VFR   VFR Marginal   IFR   IFR Intensif   IFR Très Intensif
Visi : 
Plafond : 
>= 8 km
>= 3000ft
5 à 8 km
1000 à 3000 ft
1500m à 5 km
500 à 1000 ft
800 à 1500m
200 à 500 ft
< 800m
< 200 ft
Symboles :   Orages  Brouillard  Fortes neiges  Fortes précipitations  Vent > 20 kt
SIGMETs :   Divers  Orages  Givrage  Turbulence  Onde Orograph.  Cendres Volcan.






- Altitude de l'aérodrome : 584 ft


LFPV - Villacoublay Vélizy

DERNIER METAR :
  • 262300Z AUTO 21009KT 170V240 8000 RA BKN009 OVC014 08/07 Q1013 TEMPO 20020G30KT 4000 -RA BKN004 SCT015TCU

METARs EXPIRÉS :
  • 262230Z AUTO 20010KT 170V240 9999 -RA OVC011 08/07 Q1014 TEMPO 20020G30KT NSC
  • 262200Z AUTO 21010KT 170V230 9999 -RA BKN015 BKN027 BKN044 08/07 Q1014 TEMPO 20020G30KT
  • 262130Z AUTO 20010KT 170V240 9999 -RA SCT016 BKN060 BKN078 08/06 Q1014 TEMPO 20020G30KT
  • 262100Z AUTO 20010KT 170V240 9999 FEW014 BKN060 OVC092 08/06 Q1014 NOSIG
  • 262030Z AUTO 21010KT 170V230 9999 -RA FEW043 BKN058 BKN072 08/06 Q1014 NOSIG

TAF AMD TAF LFPV
Valide du 26 à 22h jusqu'au 27 à 21h UTC


262236Z 2622/2721 19010G20KT 9000 OVC009
TEMPO 2622/2718 4000 -RA BKN004 SCT015TCU
TEMPO 2623/2703 20020G30KT
BECMG 2707/2709 20010KT
BECMG 2718/2721 FEW009



MET'MAP, la Météo Aéronautique d'un coup d'oeil ! - Copyright ORBIFLY Décembre 2007 - Disclaimer

ORBIFLY MET'MAP TEAM :

Programmation & Développement : Alexandra Zaïnal
Sur une idée originale de : Baudouin d'Aumeries
Assistance à la programmation : Marc-Olivier Méhu
Soutien technique & logistique : Manuel Goepfert

Contact : metmap@orbifly.com




SOURCES & CREDITS :

   NOAA